Uniontown, Arkansas
Current Conditions -  °F | °C
As of 7:53 PM on Monday 22 Dec 2014 (Local Time) from KFSM Reporting Station
Clear Clear  
Wind Chill: 47°   Ceiling: Unl
Heat Index: 49°   Visibility: 10mi
Dew Point: 46°   Wind: 5mph
Humidity: 90%   Direction: 240°WSW
Pressure: 29.64"   Gusts: NA
Location:  35.58°N, 94.44°W
Report Text: KFSM 230153Z 24004KT 10SM CLR 09/08 A2964 RMK AO2 SLP038 T00940078
Loading
Personal Weather Stations






























Interactive Weather Map New forecast layout! Learn more

10-Day Weather Forecast

Advertisements
Track Severe Weather on mobile